sensor_id;sensor_type;location;lat;lon;timestamp;temperature;humidity
30572;DHT22;17348;50.948;10.696;2023-06-26T00:02:10;19.50;99.90
30572;DHT22;17348;50.948;10.696;2023-06-26T00:05:13;19.50;99.90
30572;DHT22;17348;50.948;10.696;2023-06-26T00:08:15;19.40;99.90
30572;DHT22;17348;50.948;10.696;2023-06-26T00:11:18;19.30;99.90
30572;DHT22;17348;50.948;10.696;2023-06-26T00:14:20;19.30;99.90
30572;DHT22;17348;50.948;10.696;2023-06-26T00:17:24;19.30;99.90
30572;DHT22;17348;50.948;10.696;2023-06-26T00:20:26;19.30;99.90
30572;DHT22;17348;50.948;10.696;2023-06-26T00:23:31;19.30;99.90
30572;DHT22;17348;50.948;10.696;2023-06-26T00:26:37;19.30;99.90
30572;DHT22;17348;50.948;10.696;2023-06-26T00:29:40;19.20;99.90
30572;DHT22;17348;50.948;10.696;2023-06-26T00:32:44;19.20;99.90
30572;DHT22;17348;50.948;10.696;2023-06-26T00:35:46;19.10;99.90
30572;DHT22;17348;50.948;10.696;2023-06-26T00:38:51;19.10;99.90
30572;DHT22;17348;50.948;10.696;2023-06-26T00:41:53;19.00;99.90
30572;DHT22;17348;50.948;10.696;2023-06-26T00:44:56;19.00;99.90
30572;DHT22;17348;50.948;10.696;2023-06-26T00:48:00;19.00;99.90
30572;DHT22;17348;50.948;10.696;2023-06-26T00:51:02;19.00;99.90
30572;DHT22;17348;50.948;10.696;2023-06-26T00:54:09;18.90;99.90
30572;DHT22;17348;50.948;10.696;2023-06-26T00:57:12;18.90;99.90
30572;DHT22;17348;50.948;10.696;2023-06-26T01:00:15;18.90;99.90
30572;DHT22;17348;50.948;10.696;2023-06-26T01:03:19;18.90;99.90
30572;DHT22;17348;50.948;10.696;2023-06-26T01:06:23;18.80;99.90
30572;DHT22;17348;50.948;10.696;2023-06-26T01:09:26;18.80;99.90
30572;DHT22;17348;50.948;10.696;2023-06-26T01:12:29;18.80;99.90
30572;DHT22;17348;50.948;10.696;2023-06-26T01:15:32;18.80;99.90
30572;DHT22;17348;50.948;10.696;2023-06-26T01:18:36;18.80;99.90
30572;DHT22;17348;50.948;10.696;2023-06-26T01:21:44;18.70;99.90
30572;DHT22;17348;50.948;10.696;2023-06-26T01:24:56;18.70;99.90
30572;DHT22;17348;50.948;10.696;2023-06-26T01:28:05;18.70;99.90
30572;DHT22;17348;50.948;10.696;2023-06-26T01:31:08;18.60;99.90
30572;DHT22;17348;50.948;10.696;2023-06-26T01:34:12;18.60;99.90
30572;DHT22;17348;50.948;10.696;2023-06-26T01:37:14;18.50;99.90
30572;DHT22;17348;50.948;10.696;2023-06-26T01:40:17;18.50;99.90
30572;DHT22;17348;50.948;10.696;2023-06-26T01:43:24;18.50;99.90
30572;DHT22;17348;50.948;10.696;2023-06-26T01:46:38;18.50;99.90
30572;DHT22;17348;50.948;10.696;2023-06-26T01:49:47;18.40;99.90
30572;DHT22;17348;50.948;10.696;2023-06-26T01:52:58;18.30;99.90
30572;DHT22;17348;50.948;10.696;2023-06-26T01:56:07;18.30;99.90
30572;DHT22;17348;50.948;10.696;2023-06-26T01:59:12;18.20;99.90
30572;DHT22;17348;50.948;10.696;2023-06-26T02:02:15;18.20;99.90
30572;DHT22;17348;50.948;10.696;2023-06-26T02:05:18;18.20;99.90
30572;DHT22;17348;50.948;10.696;2023-06-26T02:08:20;18.10;99.90
30572;DHT22;17348;50.948;10.696;2023-06-26T02:11:23;18.10;99.90
30572;DHT22;17348;50.948;10.696;2023-06-26T02:14:27;18.10;99.90
30572;DHT22;17348;50.948;10.696;2023-06-26T02:17:29;18.10;99.90
30572;DHT22;17348;50.948;10.696;2023-06-26T02:20:32;18.00;99.90
30572;DHT22;17348;50.948;10.696;2023-06-26T02:23:34;18.00;99.90
30572;DHT22;17348;50.948;10.696;2023-06-26T02:26:36;18.00;99.90
30572;DHT22;17348;50.948;10.696;2023-06-26T02:29:41;18.00;99.90
30572;DHT22;17348;50.948;10.696;2023-06-26T02:32:43;17.90;99.90
30572;DHT22;17348;50.948;10.696;2023-06-26T02:35:46;17.90;99.90
30572;DHT22;17348;50.948;10.696;2023-06-26T02:38:48;17.90;99.90
30572;DHT22;17348;50.948;10.696;2023-06-26T02:41:51;17.90;99.90
30572;DHT22;17348;50.948;10.696;2023-06-26T02:44:54;17.90;99.90
30572;DHT22;17348;50.948;10.696;2023-06-26T02:47:59;17.80;99.90
30572;DHT22;17348;50.948;10.696;2023-06-26T02:51:01;17.80;99.90
30572;DHT22;17348;50.948;10.696;2023-06-26T02:54:03;17.80;99.90
30572;DHT22;17348;50.948;10.696;2023-06-26T02:57:06;17.70;99.90
30572;DHT22;17348;50.948;10.696;2023-06-26T03:00:11;17.70;99.90
30572;DHT22;17348;50.948;10.696;2023-06-26T03:03:18;17.70;99.90
30572;DHT22;17348;50.948;10.696;2023-06-26T03:06:22;17.60;99.90
30572;DHT22;17348;50.948;10.696;2023-06-26T03:09:24;17.60;99.90
30572;DHT22;17348;50.948;10.696;2023-06-26T03:12:29;17.60;99.90
30572;DHT22;17348;50.948;10.696;2023-06-26T03:15:33;17.60;99.90
30572;DHT22;17348;50.948;10.696;2023-06-26T03:18:36;17.60;99.90
30572;DHT22;17348;50.948;10.696;2023-06-26T03:21:38;17.60;99.90
30572;DHT22;17348;50.948;10.696;2023-06-26T03:24:41;17.50;99.90
30572;DHT22;17348;50.948;10.696;2023-06-26T03:27:43;17.60;99.90
30572;DHT22;17348;50.948;10.696;2023-06-26T03:30:47;17.60;99.90
30572;DHT22;17348;50.948;10.696;2023-06-26T03:33:50;17.60;99.90
30572;DHT22;17348;50.948;10.696;2023-06-26T03:36:52;17.60;99.90
30572;DHT22;17348;50.948;10.696;2023-06-26T03:39:54;17.60;99.90
30572;DHT22;17348;50.948;10.696;2023-06-26T03:42:56;17.70;99.90
30572;DHT22;17348;50.948;10.696;2023-06-26T03:46:00;17.90;99.90
30572;DHT22;17348;50.948;10.696;2023-06-26T03:49:03;18.00;99.90
30572;DHT22;17348;50.948;10.696;2023-06-26T03:52:06;18.10;99.90
30572;DHT22;17348;50.948;10.696;2023-06-26T03:55:08;18.20;99.90
30572;DHT22;17348;50.948;10.696;2023-06-26T03:58:11;18.20;99.90
30572;DHT22;17348;50.948;10.696;2023-06-26T04:01:14;18.20;99.90
30572;DHT22;17348;50.948;10.696;2023-06-26T04:04:17;18.30;99.90
30572;DHT22;17348;50.948;10.696;2023-06-26T04:07:19;18.30;99.90
30572;DHT22;17348;50.948;10.696;2023-06-26T04:10:21;18.30;99.90
30572;DHT22;17348;50.948;10.696;2023-06-26T04:13:24;18.30;99.90
30572;DHT22;17348;50.948;10.696;2023-06-26T04:16:28;18.30;99.90
30572;DHT22;17348;50.948;10.696;2023-06-26T04:19:31;18.30;99.90
30572;DHT22;17348;50.948;10.696;2023-06-26T04:22:33;18.30;99.90
30572;DHT22;17348;50.948;10.696;2023-06-26T04:25:36;18.40;99.90
30572;DHT22;17348;50.948;10.696;2023-06-26T04:28:38;18.40;99.90
30572;DHT22;17348;50.948;10.696;2023-06-26T04:31:42;18.40;99.90
30572;DHT22;17348;50.948;10.696;2023-06-26T04:34:47;18.50;99.90
30572;DHT22;17348;50.948;10.696;2023-06-26T04:37:49;18.60;99.90
30572;DHT22;17348;50.948;10.696;2023-06-26T04:40:51;18.60;99.90
30572;DHT22;17348;50.948;10.696;2023-06-26T04:43:54;18.70;99.90
30572;DHT22;17348;50.948;10.696;2023-06-26T04:46:57;18.80;99.90
30572;DHT22;17348;50.948;10.696;2023-06-26T04:50:00;18.90;99.90
30572;DHT22;17348;50.948;10.696;2023-06-26T04:53:02;19.00;99.90
30572;DHT22;17348;50.948;10.696;2023-06-26T04:56:04;19.10;99.90
30572;DHT22;17348;50.948;10.696;2023-06-26T04:59:07;19.20;99.90
30572;DHT22;17348;50.948;10.696;2023-06-26T05:02:15;19.30;99.90
30572;DHT22;17348;50.948;10.696;2023-06-26T05:05:17;19.40;99.90
30572;DHT22;17348;50.948;10.696;2023-06-26T05:08:22;19.50;99.90
30572;DHT22;17348;50.948;10.696;2023-06-26T05:11:26;19.70;99.90
30572;DHT22;17348;50.948;10.696;2023-06-26T05:14:28;19.80;99.90
30572;DHT22;17348;50.948;10.696;2023-06-26T05:17:35;19.90;99.90
30572;DHT22;17348;50.948;10.696;2023-06-26T05:20:38;20.10;99.90
30572;DHT22;17348;50.948;10.696;2023-06-26T05:23:41;20.20;99.90
30572;DHT22;17348;50.948;10.696;2023-06-26T05:26:45;20.40;99.90
30572;DHT22;17348;50.948;10.696;2023-06-26T05:29:48;20.50;99.90
30572;DHT22;17348;50.948;10.696;2023-06-26T05:32:52;20.70;99.90
30572;DHT22;17348;50.948;10.696;2023-06-26T05:35:55;20.90;99.90
30572;DHT22;17348;50.948;10.696;2023-06-26T05:39:00;21.00;99.90
30572;DHT22;17348;50.948;10.696;2023-06-26T05:42:04;21.10;99.90
30572;DHT22;17348;50.948;10.696;2023-06-26T05:45:07;21.20;99.90
30572;DHT22;17348;50.948;10.696;2023-06-26T05:48:10;21.30;99.90
30572;DHT22;17348;50.948;10.696;2023-06-26T05:51:13;21.50;99.90
30572;DHT22;17348;50.948;10.696;2023-06-26T05:54:16;21.60;99.90
30572;DHT22;17348;50.948;10.696;2023-06-26T05:57:19;21.80;99.90
30572;DHT22;17348;50.948;10.696;2023-06-26T06:00:22;21.90;99.90
30572;DHT22;17348;50.948;10.696;2023-06-26T06:03:26;22.00;99.90
30572;DHT22;17348;50.948;10.696;2023-06-26T06:06:28;22.20;99.90
30572;DHT22;17348;50.948;10.696;2023-06-26T06:09:30;22.30;99.90
30572;DHT22;17348;50.948;10.696;2023-06-26T06:12:33;22.40;99.90
30572;DHT22;17348;50.948;10.696;2023-06-26T06:15:35;22.50;99.90
30572;DHT22;17348;50.948;10.696;2023-06-26T06:18:39;22.60;99.90
30572;DHT22;17348;50.948;10.696;2023-06-26T06:21:41;22.80;99.90
30572;DHT22;17348;50.948;10.696;2023-06-26T06:24:44;22.90;99.90
30572;DHT22;17348;50.948;10.696;2023-06-26T06:27:46;23.00;99.90
30572;DHT22;17348;50.948;10.696;2023-06-26T06:30:48;23.10;99.90
30572;DHT22;17348;50.948;10.696;2023-06-26T06:33:52;23.30;99.90
30572;DHT22;17348;50.948;10.696;2023-06-26T06:36:54;23.40;99.90
30572;DHT22;17348;50.948;10.696;2023-06-26T06:39:57;23.60;99.90
30572;DHT22;17348;50.948;10.696;2023-06-26T06:43:00;23.70;99.90
30572;DHT22;17348;50.948;10.696;2023-06-26T06:46:02;23.90;99.90
30572;DHT22;17348;50.948;10.696;2023-06-26T06:49:07;24.00;99.90
30572;DHT22;17348;50.948;10.696;2023-06-26T06:52:09;24.10;99.90
30572;DHT22;17348;50.948;10.696;2023-06-26T06:55:12;24.30;99.90
30572;DHT22;17348;50.948;10.696;2023-06-26T06:58:14;24.40;99.90
30572;DHT22;17348;50.948;10.696;2023-06-26T07:01:17;24.60;99.90
30572;DHT22;17348;50.948;10.696;2023-06-26T07:04:21;24.70;99.90
30572;DHT22;17348;50.948;10.696;2023-06-26T07:07:28;24.90;99.90
30572;DHT22;17348;50.948;10.696;2023-06-26T07:10:31;25.00;99.90
30572;DHT22;17348;50.948;10.696;2023-06-26T07:13:34;25.10;99.90
30572;DHT22;17348;50.948;10.696;2023-06-26T07:16:36;25.30;99.90
30572;DHT22;17348;50.948;10.696;2023-06-26T07:19:40;25.40;99.90
30572;DHT22;17348;50.948;10.696;2023-06-26T07:22:42;25.50;99.90
30572;DHT22;17348;50.948;10.696;2023-06-26T07:25:48;25.70;99.90
30572;DHT22;17348;50.948;10.696;2023-06-26T07:28:50;25.80;99.90
30572;DHT22;17348;50.948;10.696;2023-06-26T07:31:52;25.90;99.90
30572;DHT22;17348;50.948;10.696;2023-06-26T07:34:56;26.00;99.90
30572;DHT22;17348;50.948;10.696;2023-06-26T07:37:59;26.10;99.90
30572;DHT22;17348;50.948;10.696;2023-06-26T07:41:01;26.20;99.90
30572;DHT22;17348;50.948;10.696;2023-06-26T07:44:03;26.30;99.90
30572;DHT22;17348;50.948;10.696;2023-06-26T07:47:06;26.50;99.90
30572;DHT22;17348;50.948;10.696;2023-06-26T07:50:10;26.60;99.90
30572;DHT22;17348;50.948;10.696;2023-06-26T07:53:12;26.70;99.90
30572;DHT22;17348;50.948;10.696;2023-06-26T07:56:14;26.90;99.90
30572;DHT22;17348;50.948;10.696;2023-06-26T07:59:17;27.00;99.90
30572;DHT22;17348;50.948;10.696;2023-06-26T08:02:19;27.10;99.90
30572;DHT22;17348;50.948;10.696;2023-06-26T08:05:23;27.20;99.90
30572;DHT22;17348;50.948;10.696;2023-06-26T08:08:25;27.30;99.90
30572;DHT22;17348;50.948;10.696;2023-06-26T08:11:27;27.30;99.90
30572;DHT22;17348;50.948;10.696;2023-06-26T08:14:30;27.40;99.90
30572;DHT22;17348;50.948;10.696;2023-06-26T08:17:32;27.50;99.90
30572;DHT22;17348;50.948;10.696;2023-06-26T08:20:36;27.60;99.90
30572;DHT22;17348;50.948;10.696;2023-06-26T08:23:38;27.70;99.90
30572;DHT22;17348;50.948;10.696;2023-06-26T08:26:40;27.70;99.90
30572;DHT22;17348;50.948;10.696;2023-06-26T08:29:43;27.80;99.90
30572;DHT22;17348;50.948;10.696;2023-06-26T08:32:45;27.90;99.90
30572;DHT22;17348;50.948;10.696;2023-06-26T08:35:50;28.00;99.90
30572;DHT22;17348;50.948;10.696;2023-06-26T08:38:52;28.00;99.90
30572;DHT22;17348;50.948;10.696;2023-06-26T08:41:55;28.10;99.90
30572;DHT22;17348;50.948;10.696;2023-06-26T08:44:57;28.10;99.90
30572;DHT22;17348;50.948;10.696;2023-06-26T08:48:00;28.20;99.90
30572;DHT22;17348;50.948;10.696;2023-06-26T08:51:11;28.30;99.90
30572;DHT22;17348;50.948;10.696;2023-06-26T08:54:15;28.40;99.10
30572;DHT22;17348;50.948;10.696;2023-06-26T08:57:20;28.40;99.00
30572;DHT22;17348;50.948;10.696;2023-06-26T09:00:24;28.40;98.80
30572;DHT22;17348;50.948;10.696;2023-06-26T09:03:26;28.40;98.00
30572;DHT22;17348;50.948;10.696;2023-06-26T09:06:30;28.50;98.90
30572;DHT22;17348;50.948;10.696;2023-06-26T09:09:33;28.60;98.90
30572;DHT22;17348;50.948;10.696;2023-06-26T09:12:36;28.70;98.20
30572;DHT22;17348;50.948;10.696;2023-06-26T09:15:42;28.70;97.80
30572;DHT22;17348;50.948;10.696;2023-06-26T09:18:45;28.80;98.60
30572;DHT22;17348;50.948;10.696;2023-06-26T09:21:50;28.90;98.10
30572;DHT22;17348;50.948;10.696;2023-06-26T09:24:53;28.90;98.00
30572;DHT22;17348;50.948;10.696;2023-06-26T09:27:56;29.00;98.00
30572;DHT22;17348;50.948;10.696;2023-06-26T09:31:01;29.10;96.80
30572;DHT22;17348;50.948;10.696;2023-06-26T09:34:05;29.20;96.90
30572;DHT22;17348;50.948;10.696;2023-06-26T09:37:11;29.40;97.20
30572;DHT22;17348;50.948;10.696;2023-06-26T09:40:14;29.50;96.20
30572;DHT22;17348;50.948;10.696;2023-06-26T09:43:18;29.80;96.90
30572;DHT22;17348;50.948;10.696;2023-06-26T09:46:24;30.00;95.80
30572;DHT22;17348;50.948;10.696;2023-06-26T09:49:27;30.30;94.70
30572;DHT22;17348;50.948;10.696;2023-06-26T09:52:32;30.50;94.40
30572;DHT22;17348;50.948;10.696;2023-06-26T09:55:36;30.70;94.30
30572;DHT22;17348;50.948;10.696;2023-06-26T09:58:39;30.80;94.50
30572;DHT22;17348;50.948;10.696;2023-06-26T10:01:45;31.00;93.40
30572;DHT22;17348;50.948;10.696;2023-06-26T10:04:48;31.20;94.30
30572;DHT22;17348;50.948;10.696;2023-06-26T10:07:52;31.40;92.10
30572;DHT22;17348;50.948;10.696;2023-06-26T10:10:56;31.50;92.70
30572;DHT22;17348;50.948;10.696;2023-06-26T10:13:59;31.60;91.70
30572;DHT22;17348;50.948;10.696;2023-06-26T10:17:06;31.70;91.90
30572;DHT22;17348;50.948;10.696;2023-06-26T10:20:09;31.80;91.40
30572;DHT22;17348;50.948;10.696;2023-06-26T10:23:14;31.90;91.40
30572;DHT22;17348;50.948;10.696;2023-06-26T10:26:18;32.00;91.50
30572;DHT22;17348;50.948;10.696;2023-06-26T10:29:23;32.00;91.10
30572;DHT22;17348;50.948;10.696;2023-06-26T10:32:27;32.10;90.30
30572;DHT22;17348;50.948;10.696;2023-06-26T10:35:31;32.30;90.20
30572;DHT22;17348;50.948;10.696;2023-06-26T10:42:10;32.30;89.60
30572;DHT22;17348;50.948;10.696;2023-06-26T10:45:14;32.40;89.90
30572;DHT22;17348;50.948;10.696;2023-06-26T10:48:17;32.40;89.30
30572;DHT22;17348;50.948;10.696;2023-06-26T10:51:20;32.50;89.50
30572;DHT22;17348;50.948;10.696;2023-06-26T10:54:22;32.60;89.10
30572;DHT22;17348;50.948;10.696;2023-06-26T10:57:26;32.80;87.20
30572;DHT22;17348;50.948;10.696;2023-06-26T11:00:29;32.70;89.50
30572;DHT22;17348;50.948;10.696;2023-06-26T11:03:31;32.70;85.70
30572;DHT22;17348;50.948;10.696;2023-06-26T11:06:35;32.60;86.80
30572;DHT22;17348;50.948;10.696;2023-06-26T11:09:54;32.50;87.00
30572;DHT22;17348;50.948;10.696;2023-06-26T11:12:59;32.60;87.80
30572;DHT22;17348;50.948;10.696;2023-06-26T11:16:03;32.70;86.50
30572;DHT22;17348;50.948;10.696;2023-06-26T11:19:07;32.70;85.00
30572;DHT22;17348;50.948;10.696;2023-06-26T11:22:09;32.90;85.90
30572;DHT22;17348;50.948;10.696;2023-06-26T11:25:12;32.90;84.90
30572;DHT22;17348;50.948;10.696;2023-06-26T11:28:15;32.90;84.70
30572;DHT22;17348;50.948;10.696;2023-06-26T11:31:25;32.80;83.30
30572;DHT22;17348;50.948;10.696;2023-06-26T11:34:30;32.70;83.50
30572;DHT22;17348;50.948;10.696;2023-06-26T11:37:32;32.60;82.60
30572;DHT22;17348;50.948;10.696;2023-06-26T11:40:37;32.50;84.30
30572;DHT22;17348;50.948;10.696;2023-06-26T11:43:41;32.30;83.90
30572;DHT22;17348;50.948;10.696;2023-06-26T11:46:43;32.10;83.90
30572;DHT22;17348;50.948;10.696;2023-06-26T11:49:47;31.90;83.50
30572;DHT22;17348;50.948;10.696;2023-06-26T11:52:53;32.10;84.40
30572;DHT22;17348;50.948;10.696;2023-06-26T11:55:56;32.10;84.00
30572;DHT22;17348;50.948;10.696;2023-06-26T11:59:01;32.20;84.60
30572;DHT22;17348;50.948;10.696;2023-06-26T12:02:07;32.10;83.90
30572;DHT22;17348;50.948;10.696;2023-06-26T12:05:11;31.90;85.40
30572;DHT22;17348;50.948;10.696;2023-06-26T12:08:14;31.70;84.90
30572;DHT22;17348;50.948;10.696;2023-06-26T12:11:17;31.50;87.30
30572;DHT22;17348;50.948;10.696;2023-06-26T12:14:22;31.20;87.20
30572;DHT22;17348;50.948;10.696;2023-06-26T12:17:26;30.90;88.90
30572;DHT22;17348;50.948;10.696;2023-06-26T12:20:28;30.60;91.20
30572;DHT22;17348;50.948;10.696;2023-06-26T12:23:33;30.30;92.10
30572;DHT22;17348;50.948;10.696;2023-06-26T12:26:37;30.30;92.60
30572;DHT22;17348;50.948;10.696;2023-06-26T12:29:45;30.50;93.10
30572;DHT22;17348;50.948;10.696;2023-06-26T12:32:48;30.70;92.80
30572;DHT22;17348;50.948;10.696;2023-06-26T12:35:51;31.00;92.80
30572;DHT22;17348;50.948;10.696;2023-06-26T12:38:53;31.00;92.70
30572;DHT22;17348;50.948;10.696;2023-06-26T12:42:00;30.80;93.20
30572;DHT22;17348;50.948;10.696;2023-06-26T12:45:13;30.90;93.30
30572;DHT22;17348;50.948;10.696;2023-06-26T12:48:16;30.80;93.10
30572;DHT22;17348;50.948;10.696;2023-06-26T12:51:18;30.60;93.60
30572;DHT22;17348;50.948;10.696;2023-06-26T12:54:21;30.60;94.30
30572;DHT22;17348;50.948;10.696;2023-06-26T12:57:23;30.40;94.20
30572;DHT22;17348;50.948;10.696;2023-06-26T13:00:27;30.20;94.00
30572;DHT22;17348;50.948;10.696;2023-06-26T13:03:30;30.00;95.00
30572;DHT22;17348;50.948;10.696;2023-06-26T13:06:32;29.90;95.10
30572;DHT22;17348;50.948;10.696;2023-06-26T13:09:35;29.70;96.10
30572;DHT22;17348;50.948;10.696;2023-06-26T13:12:37;29.70;97.30
30572;DHT22;17348;50.948;10.696;2023-06-26T13:15:41;29.40;98.50
30572;DHT22;17348;50.948;10.696;2023-06-26T13:18:44;29.00;99.40
30572;DHT22;17348;50.948;10.696;2023-06-26T13:21:46;28.80;99.90
30572;DHT22;17348;50.948;10.696;2023-06-26T13:24:48;28.50;99.90
30572;DHT22;17348;50.948;10.696;2023-06-26T13:27:51;28.00;99.90
30572;DHT22;17348;50.948;10.696;2023-06-26T13:30:55;27.50;99.90
30572;DHT22;17348;50.948;10.696;2023-06-26T13:33:58;27.20;99.90
30572;DHT22;17348;50.948;10.696;2023-06-26T13:37:00;26.90;99.90
30572;DHT22;17348;50.948;10.696;2023-06-26T13:40:04;26.70;99.90
30572;DHT22;17348;50.948;10.696;2023-06-26T13:43:07;26.50;99.90
30572;DHT22;17348;50.948;10.696;2023-06-26T13:46:11;26.30;99.90
30572;DHT22;17348;50.948;10.696;2023-06-26T13:49:13;26.20;99.90
30572;DHT22;17348;50.948;10.696;2023-06-26T13:52:16;26.00;99.90
30572;DHT22;17348;50.948;10.696;2023-06-26T13:55:18;25.80;99.90
30572;DHT22;17348;50.948;10.696;2023-06-26T13:58:23;25.60;99.90
30572;DHT22;17348;50.948;10.696;2023-06-26T14:01:29;25.30;99.90
30572;DHT22;17348;50.948;10.696;2023-06-26T14:04:31;25.20;99.90
30572;DHT22;17348;50.948;10.696;2023-06-26T14:07:34;25.20;99.90
30572;DHT22;17348;50.948;10.696;2023-06-26T14:10:36;25.20;99.90
30572;DHT22;17348;50.948;10.696;2023-06-26T14:13:38;25.20;99.90
30572;DHT22;17348;50.948;10.696;2023-06-26T14:16:42;25.40;99.90
30572;DHT22;17348;50.948;10.696;2023-06-26T14:19:45;25.50;99.90
30572;DHT22;17348;50.948;10.696;2023-06-26T14:22:48;25.70;99.90
30572;DHT22;17348;50.948;10.696;2023-06-26T14:25:51;25.80;99.90
30572;DHT22;17348;50.948;10.696;2023-06-26T14:28:53;25.90;99.90
30572;DHT22;17348;50.948;10.696;2023-06-26T14:31:57;26.20;99.90
30572;DHT22;17348;50.948;10.696;2023-06-26T14:34:59;26.30;99.90
30572;DHT22;17348;50.948;10.696;2023-06-26T14:38:02;26.30;99.90
30572;DHT22;17348;50.948;10.696;2023-06-26T14:41:04;26.30;99.90
30572;DHT22;17348;50.948;10.696;2023-06-26T14:44:07;26.30;99.90
30572;DHT22;17348;50.948;10.696;2023-06-26T14:47:12;26.60;99.90
30572;DHT22;17348;50.948;10.696;2023-06-26T14:50:14;26.80;99.90
30572;DHT22;17348;50.948;10.696;2023-06-26T14:53:17;26.90;99.90
30572;DHT22;17348;50.948;10.696;2023-06-26T14:56:19;26.90;99.90
30572;DHT22;17348;50.948;10.696;2023-06-26T14:59:22;26.70;99.90
30572;DHT22;17348;50.948;10.696;2023-06-26T15:02:25;26.70;99.90
30572;DHT22;17348;50.948;10.696;2023-06-26T15:05:28;26.70;99.90
30572;DHT22;17348;50.948;10.696;2023-06-26T15:08:30;26.60;99.90
30572;DHT22;17348;50.948;10.696;2023-06-26T15:11:32;26.50;99.90
30572;DHT22;17348;50.948;10.696;2023-06-26T15:14:35;26.50;99.90
30572;DHT22;17348;50.948;10.696;2023-06-26T15:17:39;26.30;99.90
30572;DHT22;17348;50.948;10.696;2023-06-26T15:20:41;26.20;99.90
30572;DHT22;17348;50.948;10.696;2023-06-26T15:23:44;26.30;99.90
30572;DHT22;17348;50.948;10.696;2023-06-26T15:26:47;26.40;99.90
30572;DHT22;17348;50.948;10.696;2023-06-26T15:29:49;26.40;99.90
30572;DHT22;17348;50.948;10.696;2023-06-26T15:32:53;26.50;99.90
30572;DHT22;17348;50.948;10.696;2023-06-26T15:35:58;26.60;99.90
30572;DHT22;17348;50.948;10.696;2023-06-26T15:39:00;26.60;99.90
30572;DHT22;17348;50.948;10.696;2023-06-26T15:42:03;26.60;99.90
30572;DHT22;17348;50.948;10.696;2023-06-26T15:45:06;26.40;99.90
30572;DHT22;17348;50.948;10.696;2023-06-26T15:48:10;26.20;99.90
30572;DHT22;17348;50.948;10.696;2023-06-26T15:51:13;26.00;99.90
30572;DHT22;17348;50.948;10.696;2023-06-26T15:54:16;26.10;99.90
30572;DHT22;17348;50.948;10.696;2023-06-26T15:57:18;26.10;99.90
30572;DHT22;17348;50.948;10.696;2023-06-26T16:00:21;26.10;99.90
30572;DHT22;17348;50.948;10.696;2023-06-26T16:03:24;26.00;99.90
30572;DHT22;17348;50.948;10.696;2023-06-26T16:06:27;25.90;99.90
30572;DHT22;17348;50.948;10.696;2023-06-26T16:09:29;26.00;99.90
30572;DHT22;17348;50.948;10.696;2023-06-26T16:12:31;26.10;99.90
30572;DHT22;17348;50.948;10.696;2023-06-26T16:15:34;26.00;99.90
30572;DHT22;17348;50.948;10.696;2023-06-26T16:18:38;26.00;99.90
30572;DHT22;17348;50.948;10.696;2023-06-26T16:21:40;26.00;99.90
30572;DHT22;17348;50.948;10.696;2023-06-26T16:24:42;26.10;99.90
30572;DHT22;17348;50.948;10.696;2023-06-26T16:27:45;26.10;99.90
30572;DHT22;17348;50.948;10.696;2023-06-26T16:30:47;25.90;99.90
30572;DHT22;17348;50.948;10.696;2023-06-26T16:33:51;25.70;99.90
30572;DHT22;17348;50.948;10.696;2023-06-26T16:36:53;25.50;99.90
30572;DHT22;17348;50.948;10.696;2023-06-26T16:39:56;25.40;99.90
30572;DHT22;17348;50.948;10.696;2023-06-26T16:42:58;25.30;99.90
30572;DHT22;17348;50.948;10.696;2023-06-26T16:46:00;25.20;99.90
30572;DHT22;17348;50.948;10.696;2023-06-26T16:49:04;25.20;99.90
30572;DHT22;17348;50.948;10.696;2023-06-26T16:52:07;25.20;99.90
30572;DHT22;17348;50.948;10.696;2023-06-26T16:55:09;25.30;99.90
30572;DHT22;17348;50.948;10.696;2023-06-26T16:58:12;25.30;99.90
30572;DHT22;17348;50.948;10.696;2023-06-26T17:01:14;25.30;99.90
30572;DHT22;17348;50.948;10.696;2023-06-26T17:04:18;25.20;99.90
30572;DHT22;17348;50.948;10.696;2023-06-26T17:07:20;25.00;99.90
30572;DHT22;17348;50.948;10.696;2023-06-26T17:10:23;24.90;99.90
30572;DHT22;17348;50.948;10.696;2023-06-26T17:13:25;24.80;99.90
30572;DHT22;17348;50.948;10.696;2023-06-26T17:16:28;24.70;99.90
30572;DHT22;17348;50.948;10.696;2023-06-26T17:19:31;24.60;99.90
30572;DHT22;17348;50.948;10.696;2023-06-26T17:22:35;24.60;99.90
30572;DHT22;17348;50.948;10.696;2023-06-26T17:25:37;24.50;99.90
30572;DHT22;17348;50.948;10.696;2023-06-26T17:28:40;24.40;99.90
30572;DHT22;17348;50.948;10.696;2023-06-26T17:31:42;24.30;99.90
30572;DHT22;17348;50.948;10.696;2023-06-26T17:34:46;24.30;99.90
30572;DHT22;17348;50.948;10.696;2023-06-26T17:37:48;24.20;99.90
30572;DHT22;17348;50.948;10.696;2023-06-26T17:40:50;24.10;99.90
30572;DHT22;17348;50.948;10.696;2023-06-26T17:43:53;24.10;99.90
30572;DHT22;17348;50.948;10.696;2023-06-26T17:46:55;24.00;99.90
30572;DHT22;17348;50.948;10.696;2023-06-26T17:49:59;23.90;99.90
30572;DHT22;17348;50.948;10.696;2023-06-26T17:53:01;23.70;99.90
30572;DHT22;17348;50.948;10.696;2023-06-26T17:56:04;23.60;99.90
30572;DHT22;17348;50.948;10.696;2023-06-26T17:59:06;23.50;99.90
30572;DHT22;17348;50.948;10.696;2023-06-26T18:02:09;23.40;99.90
30572;DHT22;17348;50.948;10.696;2023-06-26T18:05:12;23.30;99.90
30572;DHT22;17348;50.948;10.696;2023-06-26T18:08:15;23.20;99.90
30572;DHT22;17348;50.948;10.696;2023-06-26T18:11:17;23.10;99.90
30572;DHT22;17348;50.948;10.696;2023-06-26T18:14:19;23.00;99.90
30572;DHT22;17348;50.948;10.696;2023-06-26T18:17:22;22.80;99.90
30572;DHT22;17348;50.948;10.696;2023-06-26T18:20:26;22.70;99.90
30572;DHT22;17348;50.948;10.696;2023-06-26T18:23:28;22.60;99.90
30572;DHT22;17348;50.948;10.696;2023-06-26T18:26:30;22.50;99.90
30572;DHT22;17348;50.948;10.696;2023-06-26T18:29:33;22.40;99.90
30572;DHT22;17348;50.948;10.696;2023-06-26T18:32:36;22.30;99.90
30572;DHT22;17348;50.948;10.696;2023-06-26T18:35:39;22.20;99.90
30572;DHT22;17348;50.948;10.696;2023-06-26T18:38:42;22.10;99.90
30572;DHT22;17348;50.948;10.696;2023-06-26T18:41:44;22.00;99.90
30572;DHT22;17348;50.948;10.696;2023-06-26T18:44:47;21.90;99.90
30572;DHT22;17348;50.948;10.696;2023-06-26T18:47:50;21.80;99.90
30572;DHT22;17348;50.948;10.696;2023-06-26T18:50:57;21.80;99.90
30572;DHT22;17348;50.948;10.696;2023-06-26T18:54:00;21.80;99.90
30572;DHT22;17348;50.948;10.696;2023-06-26T18:57:04;21.80;99.90
30572;DHT22;17348;50.948;10.696;2023-06-26T19:00:07;21.70;99.90
30572;DHT22;17348;50.948;10.696;2023-06-26T19:03:10;21.70;99.90